Time;durP1;ratioP1;P1;durP2;ratioP2;P2;SDS_P1;SDS_P2;PMS_P1;PMS_P2;Temp;Humidity;BMP_temperature;BMP_pressure;BME280_temperature;BME280_humidity;BME280_pressure;Samples;Min_cycle;Max_cycle;Signal;HPM_P1;HPM_P2
2023/07/18 00:01:35;;;;;;;1.10;0.50;;;21.00;54.70;;;;;;2528594;54;20968;-67
2023/07/18 00:04:02;;;;;;;2.75;0.57;;;20.90;54.60;;;;;;2528410;54;21117;-67
2023/07/18 00:06:29;;;;;;;1.62;0.60;;;20.90;54.70;;;;;;2528650;54;20979;-66
2023/07/18 00:08:55;;;;;;;0.90;0.40;;;20.90;54.90;;;;;;2292712;55;20987;-69
2023/07/18 00:11:22;;;;;;;1.35;0.55;;;20.80;54.90;;;;;;2528669;54;20917;-69
2023/07/18 00:13:49;;;;;;;1.75;0.60;;;20.80;55.00;;;;;;2291370;55;20932;-68
2023/07/18 00:16:15;;;;;;;1.10;0.52;;;20.80;55.10;;;;;;2528417;54;21002;-70
2023/07/18 00:18:42;;;;;;;1.33;0.55;;;20.80;55.10;;;;;;2293220;55;20983;-73
2023/07/18 00:21:12;;;;;;;1.40;0.47;;;20.70;55.10;;;;;;2292878;55;21008;-71
2023/07/18 00:23:43;;;;;;;2.50;0.65;;;20.70;55.10;;;;;;2289591;55;20972;-71
2023/07/18 00:26:09;;;;;;;1.50;0.55;;;20.70;55.10;;;;;;2528024;54;21485;-67
2023/07/18 00:28:36;;;;;;;1.50;0.50;;;20.70;55.10;;;;;;2528335;54;20928;-67
2023/07/18 00:31:03;;;;;;;0.90;0.40;;;20.70;55.10;;;;;;2528528;54;21004;-66
2023/07/18 00:33:29;;;;;;;1.27;0.50;;;20.60;55.10;;;;;;2293179;55;21282;-69
2023/07/18 00:35:55;;;;;;;2.15;0.80;;;20.60;55.10;;;;;;2291378;55;21429;-69
2023/07/18 00:38:22;;;;;;;2.05;0.55;;;20.60;55.20;;;;;;2500962;54;21877;-66
2023/07/18 00:40:49;;;;;;;2.33;0.60;;;20.50;55.10;;;;;;2528204;54;21668;-67
2023/07/18 00:43:15;;;;;;;2.22;0.60;;;20.50;55.10;;;;;;2528681;54;21068;-66
2023/07/18 00:45:41;;;;;;;1.50;0.52;;;20.50;55.20;;;;;;2293040;55;20916;-67
2023/07/18 00:48:09;;;;;;;1.23;0.30;;;20.40;55.30;;;;;;2292842;55;20995;-67
2023/07/18 00:50:35;;;;;;;1.60;0.43;;;20.40;55.30;;;;;;2293137;55;21374;-67
2023/07/18 00:53:03;;;;;;;1.27;0.50;;;20.40;55.40;;;;;;2527751;54;20944;-67
2023/07/18 00:55:29;;;;;;;1.35;0.45;;;20.30;55.40;;;;;;2507011;54;21041;-67
2023/07/18 00:57:56;;;;;;;1.42;0.60;;;20.30;55.40;;;;;;2522748;54;21494;-66
2023/07/18 01:00:22;;;;;;;1.35;0.50;;;20.30;55.50;;;;;;2293340;55;21377;-66
2023/07/18 01:02:49;;;;;;;2.25;0.60;;;20.30;55.50;;;;;;2293212;55;20920;-66
2023/07/18 01:05:17;;;;;;;1.48;0.57;;;20.20;55.50;;;;;;2528604;54;20964;-66
2023/07/18 01:07:44;;;;;;;1.80;0.52;;;20.20;55.60;;;;;;2292544;55;20949;-70
2023/07/18 01:10:28;;;;;;;1.50;0.40;;;20.20;55.60;;;;;;2528180;54;20929;-67
2023/07/18 01:12:57;;;;;;;1.20;0.50;;;20.20;55.40;;;;;;2291956;55;21059;-69
2023/07/18 01:15:24;;;;;;;2.20;0.60;;;20.10;55.60;;;;;;2293267;56;20897;-68
2023/07/18 01:17:51;;;;;;;1.77;0.60;;;20.10;55.60;;;;;;2529196;54;20936;-70
2023/07/18 01:20:23;;;;;;;2.80;0.80;;;20.10;55.70;;;;;;2280551;55;21005;-67
2023/07/18 01:22:53;;;;;;;1.15;0.50;;;20.10;55.70;;;;;;2287532;55;20948;-69
2023/07/18 01:25:19;;;;;;;1.70;0.45;;;20.00;55.70;;;;;;2528641;54;20940;-68
2023/07/18 01:27:47;;;;;;;1.65;0.55;;;20.00;55.70;;;;;;2293276;55;20913;-74
2023/07/18 01:30:18;;;;;;;1.27;0.50;;;20.00;55.70;;;;;;2528650;54;20896;-70
2023/07/18 01:32:48;;;;;;;3.03;0.95;;;20.00;55.80;;;;;;2293062;55;21319;-71
2023/07/18 01:35:15;;;;;;;1.73;0.32;;;20.00;55.80;;;;;;2274621;55;21027;-69
2023/07/18 01:37:44;;;;;;;1.25;0.43;;;19.90;55.80;;;;;;2293135;55;20924;-69
2023/07/18 01:40:15;;;;;;;1.05;0.43;;;19.90;55.80;;;;;;2292660;55;20948;-71
2023/07/18 01:42:45;;;;;;;1.50;0.68;;;19.90;55.80;;;;;;2273602;55;20977;-68
2023/07/18 01:45:12;;;;;;;1.02;0.40;;;19.80;55.80;;;;;;2292451;55;20952;-73
2023/07/18 01:47:41;;;;;;;1.65;0.50;;;19.80;55.90;;;;;;2294302;55;20992;-72
2023/07/18 01:50:07;;;;;;;1.05;0.40;;;19.80;55.90;;;;;;2273469;55;20916;-71
2023/07/18 01:52:34;;;;;;;1.08;0.50;;;19.80;55.90;;;;;;2293109;56;20924;-70
2023/07/18 01:55:02;;;;;;;2.35;0.57;;;19.70;56.00;;;;;;2527631;54;20938;-69
2023/07/18 01:57:48;;;;;;;1.50;0.60;;;19.70;56.00;;;;;;2515608;54;20986;-71
2023/07/18 02:00:19;;;;;;;3.12;0.70;;;19.70;55.80;;;;;;2285709;55;20912;-68
2023/07/18 02:02:49;;;;;;;0.95;0.35;;;19.70;56.10;;;;;;2292333;56;21032;-68
2023/07/18 02:05:23;;;;;;;3.62;0.45;;;19.60;56.00;;;;;;2293184;56;21417;-71
2023/07/18 02:07:50;;;;;;;2.03;0.50;;;19.60;56.20;;;;;;2528335;54;21773;-69
2023/07/18 02:10:20;;;;;;;1.87;0.60;;;19.60;56.20;;;;;;2292603;56;22150;-72
2023/07/18 02:12:53;;;;;;;4.10;0.95;;;19.60;56.20;;;;;;2292803;55;20940;-69
2023/07/18 02:15:20;;;;;;;1.73;0.50;;;19.50;56.10;;;;;;2528193;54;20941;-73
2023/07/18 02:17:47;;;;;;;1.37;0.47;;;19.50;56.80;;;;;;2292962;55;21023;-72
2023/07/18 02:20:14;;;;;;;2.00;0.50;;;19.50;56.30;;;;;;2293308;55;21015;-68
2023/07/18 02:22:46;;;;;;;1.52;0.60;;;19.40;56.20;;;;;;2292610;56;20924;-68
2023/07/18 02:25:15;;;;;;;1.15;0.45;;;19.40;56.30;;;;;;2528689;54;21390;-69
2023/07/18 02:27:42;;;;;;;2.28;0.70;;;19.40;56.30;;;;;;2292398;56;20948;-72
2023/07/18 02:30:10;;;;;;;1.67;0.55;;;19.40;56.40;;;;;;2294322;55;21013;-69
2023/07/18 02:32:36;;;;;;;1.85;0.50;;;19.40;56.50;;;;;;2503433;54;20936;-67
2023/07/18 02:35:03;;;;;;;2.12;0.80;;;19.40;56.50;;;;;;2527861;54;20974;-68
2023/07/18 02:37:29;;;;;;;2.25;0.60;;;19.30;56.40;;;;;;2293318;56;20960;-73
2023/07/18 02:39:55;;;;;;;1.87;0.75;;;19.30;56.40;;;;;;2281448;55;21565;-69
2023/07/18 02:42:22;;;;;;;1.70;0.43;;;19.30;56.40;;;;;;2270169;55;21549;-73
2023/07/18 02:44:48;;;;;;;1.98;0.80;;;19.30;56.50;;;;;;2291434;55;20928;-70
2023/07/18 02:47:14;;;;;;;2.22;0.70;;;19.30;56.50;;;;;;2292248;55;20904;-69
2023/07/18 02:49:41;;;;;;;2.17;0.70;;;19.20;56.50;;;;;;2293006;56;20961;-66
2023/07/18 02:52:07;;;;;;;1.75;0.70;;;19.20;56.50;;;;;;2293345;56;21008;-68
2023/07/18 02:54:33;;;;;;;2.45;0.80;;;19.20;56.50;;;;;;2293078;56;20960;-66
2023/07/18 02:57:03;;;;;;;1.67;0.70;;;19.20;56.50;;;;;;2527114;54;20909;-65
2023/07/18 02:59:29;;;;;;;2.58;0.60;;;19.20;56.50;;;;;;2528493;54;21829;-69
2023/07/18 03:01:58;;;;;;;1.35;0.50;;;19.10;56.50;;;;;;2292978;55;20933;-68
2023/07/18 03:04:26;;;;;;;1.98;0.70;;;19.10;57.10;;;;;;2523339;54;20962;-69
2023/07/18 03:06:54;;;;;;;2.30;0.55;;;19.10;56.60;;;;;;2505899;54;21012;-68
2023/07/18 03:09:21;;;;;;;1.55;0.57;;;19.00;56.60;;;;;;2527424;54;21715;-69
2023/07/18 03:11:49;;;;;;;1.77;0.40;;;19.00;56.70;;;;;;2527720;54;20956;-68
2023/07/18 03:14:17;;;;;;;0.75;0.40;;;19.00;56.70;;;;;;2527762;54;20904;-66
2023/07/18 03:16:45;;;;;;;1.95;0.55;;;19.00;56.70;;;;;;2292821;55;21841;-67
2023/07/18 03:19:14;;;;;;;1.58;0.50;;;18.90;56.60;;;;;;2293283;56;21023;-68
2023/07/18 03:21:43;;;;;;;1.08;0.40;;;18.90;56.60;;;;;;2292972;55;21476;-66
2023/07/18 03:24:10;;;;;;;2.12;0.50;;;18.90;56.70;;;;;;2292629;55;20972;-67
2023/07/18 03:26:39;;;;;;;1.00;0.50;;;18.80;56.60;;;;;;2528355;54;20988;-65
2023/07/18 03:29:07;;;;;;;0.90;0.43;;;18.80;56.70;;;;;;2293476;55;20932;-69
2023/07/18 03:31:35;;;;;;;0.80;0.40;;;18.80;56.80;;;;;;2528263;54;20932;-69
2023/07/18 03:34:04;;;;;;;2.03;0.50;;;18.80;56.90;;;;;;2292503;55;20992;-65
2023/07/18 03:36:31;;;;;;;1.33;0.50;;;18.80;56.90;;;;;;2294530;55;20944;-66
2023/07/18 03:38:57;;;;;;;2.17;0.60;;;18.80;56.90;;;;;;2292201;55;21583;-66
2023/07/18 03:41:24;;;;;;;1.37;0.40;;;18.70;56.90;;;;;;2528428;54;20928;-66
2023/07/18 03:43:54;;;;;;;1.70;0.50;;;18.70;56.90;;;;;;2527489;54;21008;-66
2023/07/18 03:46:21;;;;;;;1.55;0.50;;;18.70;56.90;;;;;;2527475;54;21000;-68
2023/07/18 03:48:47;;;;;;;0.93;0.40;;;18.70;57.00;;;;;;2528053;54;21063;-69
2023/07/18 03:51:14;;;;;;;1.37;0.60;;;18.60;56.90;;;;;;2293104;55;20905;-69
2023/07/18 03:53:43;;;;;;;0.73;0.40;;;18.60;56.90;;;;;;2292596;55;20968;-69
2023/07/18 03:56:10;;;;;;;1.87;0.50;;;18.60;57.00;;;;;;2293740;55;21001;-69
2023/07/18 03:58:37;;;;;;;1.00;0.47;;;18.60;57.10;;;;;;2292892;55;21433;-72
2023/07/18 04:01:10;;;;;;;2.03;0.80;;;18.60;57.20;;;;;;2292899;55;20952;-71
2023/07/18 04:03:37;;;;;;;1.57;0.53;;;18.60;57.10;;;;;;2443675;54;2753861;-69
2023/07/18 04:06:04;;;;;;;0.95;0.30;;;18.50;57.10;;;;;;2528492;54;21439;-71
2023/07/18 04:08:30;;;;;;;1.33;0.50;;;18.50;57.20;;;;;;2293266;55;20952;-73
2023/07/18 04:10:58;;;;;;;1.02;0.40;;;18.50;57.20;;;;;;2528385;54;20896;-70
2023/07/18 04:13:25;;;;;;;1.45;0.60;;;18.50;57.20;;;;;;2293235;55;20897;-72
2023/07/18 04:15:53;;;;;;;1.40;0.57;;;18.50;57.30;;;;;;2527557;54;20991;-66
2023/07/18 04:18:19;;;;;;;1.65;0.50;;;18.50;57.30;;;;;;2293065;55;21833;-66
2023/07/18 04:20:49;;;;;;;1.58;0.60;;;18.50;57.30;;;;;;2293485;55;20929;-66
2023/07/18 04:23:16;;;;;;;1.73;0.70;;;18.50;57.40;;;;;;2292940;55;20912;-66
2023/07/18 04:25:56;;;;;;;1.00;0.40;;;18.50;57.40;;;;;;2528085;54;21429;-66
2023/07/18 04:28:22;;;;;;;0.90;0.43;;;18.50;57.20;;;;;;2527843;54;21003;-68
2023/07/18 04:30:49;;;;;;;1.40;0.50;;;18.40;57.40;;;;;;2528591;54;21750;-71
2023/07/18 04:33:15;;;;;;;3.45;0.57;;;18.40;57.40;;;;;;2293082;55;21016;-70
2023/07/18 04:35:44;;;;;;;1.75;0.65;;;18.50;57.50;;;;;;2291396;55;21020;-72
2023/07/18 04:38:11;;;;;;;1.85;0.65;;;18.40;57.50;;;;;;2293259;55;20900;-70
2023/07/18 04:40:37;;;;;;;1.50;0.50;;;18.40;57.70;;;;;;2501801;54;20949;-73
2023/07/18 04:43:04;;;;;;;1.73;0.60;;;18.40;57.80;;;;;;2292546;55;20996;-69
2023/07/18 04:45:31;;;;;;;1.55;0.55;;;18.40;57.80;;;;;;2525612;54;20924;-69
2023/07/18 04:47:59;;;;;;;1.65;0.70;;;18.40;57.90;;;;;;2504352;54;21009;-69
2023/07/18 04:50:27;;;;;;;2.42;0.60;;;18.40;58.00;;;;;;2524483;54;20885;-69
2023/07/18 04:52:54;;;;;;;2.17;0.82;;;18.40;58.10;;;;;;2272819;55;21810;-69
2023/07/18 04:55:22;;;;;;;2.58;0.88;;;18.40;58.10;;;;;;2291263;55;21028;-69
2023/07/18 04:57:49;;;;;;;2.08;0.80;;;18.40;58.20;;;;;;2293326;55;20944;-69
2023/07/18 05:00:16;;;;;;;2.60;0.88;;;18.40;58.30;;;;;;2526068;54;20952;-70
2023/07/18 05:02:42;;;;;;;3.53;0.90;;;18.40;58.30;;;;;;2528078;54;20940;-69
2023/07/18 05:05:09;;;;;;;1.35;0.57;;;18.40;58.30;;;;;;2293086;55;20968;-69
2023/07/18 05:07:35;;;;;;;2.35;0.70;;;18.50;58.40;;;;;;2527783;54;21016;-71
2023/07/18 05:10:02;;;;;;;3.22;0.80;;;18.50;58.50;;;;;;2292743;56;20948;-69
2023/07/18 05:12:29;;;;;;;2.92;0.70;;;18.50;58.60;;;;;;2528210;54;20928;-72
2023/07/18 05:14:57;;;;;;;2.72;1.10;;;18.50;58.60;;;;;;2528545;54;20929;-69
2023/07/18 05:17:26;;;;;;;1.73;0.75;;;18.50;58.60;;;;;;2528323;54;20912;-72
2023/07/18 05:19:52;;;;;;;2.37;0.80;;;18.60;58.70;;;;;;2528225;54;20964;-69
2023/07/18 05:22:19;;;;;;;2.60;1.12;;;18.60;58.80;;;;;;2292627;55;20920;-70
2023/07/18 05:24:45;;;;;;;2.00;0.90;;;18.70;58.90;;;;;;2528690;54;20936;-69
2023/07/18 05:27:13;;;;;;;1.95;0.70;;;18.70;59.00;;;;;;2528525;54;20877;-71
2023/07/18 05:29:39;;;;;;;1.87;0.70;;;18.70;59.10;;;;;;2293510;55;20976;-69
2023/07/18 05:32:06;;;;;;;2.35;0.60;;;18.80;59.10;;;;;;2510943;54;20958;-69
2023/07/18 05:34:34;;;;;;;1.37;0.62;;;18.80;59.10;;;;;;2518383;54;20932;-70
2023/07/18 05:37:01;;;;;;;1.67;0.68;;;18.80;59.10;;;;;;2293462;55;21020;-73
2023/07/18 05:39:28;;;;;;;1.77;0.80;;;18.90;59.20;;;;;;2528095;54;20964;-73
2023/07/18 05:41:57;;;;;;;2.50;1.00;;;18.90;59.30;;;;;;2289529;55;21023;-69
2023/07/18 05:44:23;;;;;;;1.92;0.80;;;19.00;60.00;;;;;;2509455;54;20964;-69
2023/07/18 05:46:50;;;;;;;3.97;0.73;;;19.00;59.40;;;;;;2292923;56;20964;-68
2023/07/18 05:49:17;;;;;;;3.15;1.00;;;19.10;59.50;;;;;;2528055;54;20980;-74
2023/07/18 05:51:43;;;;;;;2.25;0.80;;;19.10;59.50;;;;;;2293046;55;20920;-69
2023/07/18 05:54:09;;;;;;;1.80;0.80;;;19.20;59.50;;;;;;2528612;54;21023;-72
2023/07/18 05:56:37;;;;;;;2.45;0.82;;;19.20;59.50;;;;;;2293161;55;20904;-69
2023/07/18 05:59:06;;;;;;;2.37;0.95;;;19.30;59.50;;;;;;2527817;54;20987;-68
2023/07/18 06:01:32;;;;;;;2.53;1.17;;;19.30;59.50;;;;;;2527633;54;21453;-73
2023/07/18 06:03:59;;;;;;;3.50;1.15;;;19.40;59.50;;;;;;2501837;54;21045;-69
2023/07/18 06:06:28;;;;;;;3.62;1.10;;;19.50;59.60;;;;;;2523220;54;20936;-73
2023/07/18 06:08:55;;;;;;;2.67;0.73;;;19.50;59.50;;;;;;2527784;54;21008;-69
2023/07/18 06:11:24;;;;;;;2.95;0.70;;;19.60;59.80;;;;;;2292587;55;20995;-69
2023/07/18 06:13:51;;;;;;;2.50;0.85;;;19.60;59.60;;;;;;2528355;54;21483;-69
2023/07/18 06:16:17;;;;;;;3.08;0.93;;;19.70;59.70;;;;;;2274396;55;21766;-72
2023/07/18 06:18:46;;;;;;;2.78;1.02;;;19.80;59.80;;;;;;2528100;54;20936;-70
2023/07/18 06:21:12;;;;;;;1.98;0.90;;;19.80;59.70;;;;;;2292738;55;20948;-70
2023/07/18 06:23:38;;;;;;;3.70;0.70;;;19.90;59.80;;;;;;2292645;55;20924;-70
2023/07/18 06:26:05;;;;;;;4.15;1.00;;;20.00;59.80;;;;;;2292788;56;21561;-70
2023/07/18 06:28:31;;;;;;;1.75;0.73;;;20.00;59.70;;;;;;2292625;55;20939;-69
2023/07/18 06:30:58;;;;;;;2.40;0.90;;;20.10;59.70;;;;;;2292364;55;21003;-69
2023/07/18 06:33:25;;;;;;;2.62;1.12;;;20.20;59.80;;;;;;2528057;54;20897;-73
2023/07/18 06:35:56;;;;;;;2.28;0.80;;;20.30;59.80;;;;;;2292180;55;21032;-73
2023/07/18 06:38:22;;;;;;;2.40;0.80;;;20.30;59.60;;;;;;2527984;54;20996;-70
2023/07/18 06:40:50;;;;;;;6.80;1.62;;;20.40;59.70;;;;;;2508954;54;21636;-74
2023/07/18 06:43:19;;;;;;;2.70;1.27;;;20.50;59.70;;;;;;2286046;55;20920;-70
2023/07/18 06:45:46;;;;;;;2.37;0.95;;;20.60;59.80;;;;;;2527471;54;21028;-69
2023/07/18 06:48:13;;;;;;;3.15;0.95;;;20.60;59.80;;;;;;2517248;54;21063;-73
2023/07/18 06:50:49;;;;;;;2.67;1.00;;;20.60;59.70;;;;;;2279100;55;20912;-70
2023/07/18 06:53:19;;;;;;;2.83;1.02;;;20.80;59.70;;;;;;2528044;54;21054;-71
2023/07/18 06:55:49;;;;;;;2.17;0.80;;;20.80;59.90;;;;;;2527586;54;20936;-70
2023/07/18 06:58:16;;;;;;;2.50;0.90;;;20.90;59.90;;;;;;2292179;55;20981;-70
2023/07/18 07:00:44;;;;;;;1.62;0.70;;;21.00;59.90;;;;;;2501303;54;20920;-70
2023/07/18 07:03:11;;;;;;;1.77;0.75;;;21.10;59.90;;;;;;2273339;55;21474;-68
2023/07/18 07:05:38;;;;;;;3.12;0.77;;;21.10;59.80;;;;;;2292707;55;20916;-73
2023/07/18 07:08:10;;;;;;;1.35;0.70;;;21.20;59.80;;;;;;2292726;55;21700;-69
2023/07/18 07:10:37;;;;;;;2.40;1.10;;;21.30;59.70;;;;;;2293346;55;20916;-70
2023/07/18 07:13:03;;;;;;;1.90;0.98;;;21.40;59.70;;;;;;2291403;55;21002;-71
2023/07/18 07:15:30;;;;;;;3.25;0.90;;;21.50;59.70;;;;;;2527687;54;21399;-69
2023/07/18 07:17:56;;;;;;;2.75;0.98;;;21.50;59.60;;;;;;2292926;55;21858;-68
2023/07/18 07:20:24;;;;;;;2.17;0.82;;;21.60;59.70;;;;;;2293090;56;20944;-73
2023/07/18 07:22:53;;;;;;;2.97;1.00;;;21.70;59.80;;;;;;2527854;54;20928;-69
2023/07/18 07:25:20;;;;;;;2.97;1.00;;;21.80;59.70;;;;;;2528005;54;20971;-70
2023/07/18 07:27:46;;;;;;;2.67;0.95;;;21.90;59.80;;;;;;2527745;54;20952;-69
2023/07/18 07:30:15;;;;;;;3.00;1.00;;;22.00;59.80;;;;;;2527762;54;21564;-70
2023/07/18 07:32:44;;;;;;;3.28;1.10;;;22.10;59.80;;;;;;2501492;54;21001;-68
2023/07/18 07:35:11;;;;;;;2.55;1.02;;;22.20;59.70;;;;;;2528008;54;21802;-70
2023/07/18 07:37:40;;;;;;;3.12;0.90;;;22.20;59.70;;;;;;2505805;54;21022;-70
2023/07/18 07:40:11;;;;;;;3.15;1.10;;;22.30;59.70;;;;;;2289381;55;20988;-68
2023/07/18 07:42:38;;;;;;;3.30;1.10;;;22.40;59.70;;;;;;2293626;55;20927;-69
2023/07/18 07:45:05;;;;;;;3.67;1.40;;;22.50;59.60;;;;;;2293496;55;20983;-69
2023/07/18 07:47:33;;;;;;;3.40;0.95;;;22.60;59.60;;;;;;2292713;55;20924;-69
2023/07/18 07:50:06;;;;;;;2.72;1.05;;;22.70;59.70;;;;;;2529227;54;20964;-70
2023/07/18 07:52:32;;;;;;;3.33;1.02;;;22.80;59.60;;;;;;2528560;54;20932;-74
2023/07/18 07:54:59;;;;;;;2.42;1.23;;;22.90;59.50;;;;;;2275333;55;21569;-70
2023/07/18 07:57:28;;;;;;;2.00;0.80;;;23.00;59.50;;;;;;2292819;55;20932;-74
2023/07/18 07:59:55;;;;;;;3.45;1.23;;;23.10;59.40;;;;;;2503690;54;20949;-69
2023/07/18 08:02:22;;;;;;;2.22;1.00;;;23.20;59.40;;;;;;2292024;55;21063;-72
2023/07/18 08:04:49;;;;;;;3.22;1.00;;;23.20;59.20;;;;;;2528542;54;20948;-70
2023/07/18 08:07:15;;;;;;;2.67;1.10;;;23.40;59.30;;;;;;2529151;54;20981;-70
2023/07/18 08:09:42;;;;;;;3.55;1.12;;;23.40;59.10;;;;;;2528552;54;21346;-69
2023/07/18 08:12:10;;;;;;;3.10;0.90;;;23.50;59.10;;;;;;2293673;55;20922;-68
2023/07/18 08:14:39;;;;;;;4.47;1.27;;;23.60;58.90;;;;;;2528845;54;21240;-67
2023/07/18 08:17:06;;;;;;;4.30;1.05;;;23.70;58.80;;;;;;2508891;54;21450;-71
2023/07/18 08:19:37;;;;;;;2.33;1.10;;;23.80;58.80;;;;;;2289258;55;20901;-68
2023/07/18 08:22:03;;;;;;;2.70;1.02;;;23.90;58.70;;;;;;2290105;55;20989;-68
2023/07/18 08:24:30;;;;;;;3.28;1.00;;;24.00;58.50;;;;;;2515801;54;21001;-70
2023/07/18 08:26:57;;;;;;;2.20;0.95;;;24.00;58.30;;;;;;2528761;54;21289;-68
2023/07/18 08:29:26;;;;;;;2.65;0.80;;;24.10;58.40;;;;;;2293945;55;20975;-73
2023/07/18 08:31:54;;;;;;;2.15;0.90;;;24.20;58.20;;;;;;2293244;55;21020;-73
2023/07/18 08:34:20;;;;;;;1.83;0.80;;;24.20;58.10;;;;;;2293803;55;21017;-69
2023/07/18 08:36:49;;;;;;;2.50;1.00;;;24.30;58.00;;;;;;2293663;55;20924;-69
2023/07/18 08:39:16;;;;;;;2.28;1.00;;;24.40;58.00;;;;;;2293635;55;20936;-72
2023/07/18 08:41:44;;;;;;;2.58;1.00;;;24.50;58.10;;;;;;2528987;54;20944;-70
2023/07/18 08:44:16;;;;;;;2.78;0.88;;;24.60;58.10;;;;;;2528605;54;21374;-68
2023/07/18 08:46:45;;;;;;;3.30;0.93;;;24.60;57.80;;;;;;2294236;55;20912;-71
2023/07/18 08:49:14;;;;;;;3.03;0.90;;;24.70;57.80;;;;;;2290997;55;21022;-68
2023/07/18 08:51:41;;;;;;;3.53;1.25;;;24.80;57.80;;;;;;2276319;55;21453;-71
2023/07/18 08:54:08;;;;;;;3.83;1.10;;;24.80;57.70;;;;;;2527662;54;21016;-69
2023/07/18 08:56:34;;;;;;;4.03;0.90;;;24.90;57.80;;;;;;2293205;56;20924;-69
2023/07/18 08:59:01;;;;;;;2.08;0.80;;;25.00;57.80;;;;;;2528171;54;20904;-74
2023/07/18 09:01:27;;;;;;;2.03;0.80;;;25.00;57.70;;;;;;2293021;55;25734;-70
2023/07/18 09:03:55;;;;;;;3.80;1.00;;;25.10;57.60;;;;;;2288410;55;21566;-69
2023/07/18 09:06:21;;;;;;;3.45;0.85;;;25.20;57.60;;;;;;2279746;55;20951;-73
2023/07/18 09:08:48;;;;;;;2.60;0.73;;;25.30;57.50;;;;;;2293359;55;20939;-70
2023/07/18 09:11:18;;;;;;;2.70;0.98;;;25.40;57.50;;;;;;2293300;55;20924;-69
2023/07/18 09:13:45;;;;;;;2.05;0.88;;;25.40;57.30;;;;;;2528694;54;20985;-69
2023/07/18 09:16:21;;;;;;;2.80;1.02;;;25.50;57.60;;;;;;2293450;55;21000;-70
2023/07/18 09:18:52;;;;;;;2.45;0.80;;;25.60;57.10;;;;;;2277202;55;21440;-71
2023/07/18 09:21:19;;;;;;;3.90;1.00;;;25.70;57.40;;;;;;2279624;55;20999;-66
2023/07/18 09:23:46;;;;;;;2.35;1.00;;;25.80;57.20;;;;;;2528250;54;21661;-67
2023/07/18 09:26:17;;;;;;;1.70;0.73;;;25.90;56.90;;;;;;2293394;56;20932;-67
2023/07/18 09:28:45;;;;;;;1.95;0.80;;;26.00;56.50;;;;;;2528675;54;20932;-66
2023/07/18 09:31:25;;;;;;;2.03;0.80;;;26.00;57.20;;;;;;2274665;55;21550;-68
2023/07/18 09:33:52;;;;;;;2.03;0.70;;;26.10;56.10;;;;;;2528308;54;21011;-67
2023/07/18 09:36:24;;;;;;;2.22;0.70;;;26.10;56.50;;;;;;2528564;54;21000;-67
2023/07/18 09:38:50;;;;;;;1.40;0.65;;;26.20;56.30;;;;;;2528961;54;21060;-68
2023/07/18 09:41:19;;;;;;;3.85;0.90;;;26.20;56.40;;;;;;2293290;55;20952;-66
2023/07/18 09:43:47;;;;;;;2.17;0.90;;;26.30;56.30;;;;;;2292709;55;20980;-67
2023/07/18 09:46:15;;;;;;;2.55;1.08;;;26.30;56.10;;;;;;2294270;55;21503;-67
2023/07/18 09:48:42;;;;;;;2.67;0.90;;;26.30;56.10;;;;;;2527606;54;20969;-66
2023/07/18 09:51:14;;;;;;;1.55;0.62;;;26.30;56.20;;;;;;2295856;56;20932;-68
2023/07/18 09:53:45;;;;;;;3.85;0.98;;;26.40;56.20;;;;;;2292591;55;20936;-68
2023/07/18 09:56:14;;;;;;;3.22;0.80;;;26.40;56.20;;;;;;2296956;55;20952;-66
2023/07/18 09:58:42;;;;;;;2.33;1.00;;;26.40;56.30;;;;;;2527736;54;20962;-69
2023/07/18 10:01:11;;;;;;;3.97;1.08;;;26.40;56.30;;;;;;2501163;54;20917;-67
2023/07/18 10:03:38;;;;;;;3.58;0.80;;;26.50;56.20;;;;;;2293504;55;21067;-67
2023/07/18 10:06:12;;;;;;;2.40;0.80;;;26.50;56.40;;;;;;2293241;55;20987;-67
2023/07/18 10:08:41;;;;;;;3.28;0.80;;;26.50;56.00;;;;;;2293705;56;20949;-67
2023/07/18 10:11:11;;;;;;;2.20;0.90;;;26.60;56.00;;;;;;2292844;55;20912;-67
2023/07/18 10:14:20;;;;;;;3.90;1.00;;;26.70;56.10;;;;;;2293121;55;20964;-67
2023/07/18 10:16:53;;;;;;;3.10;0.93;;;26.70;55.00;;;;;;2528383;54;20979;-66
2023/07/18 10:19:22;;;;;;;2.83;1.00;;;26.80;55.80;;;;;;2293090;55;21358;-67
2023/07/18 10:21:51;;;;;;;3.33;1.10;;;26.90;56.00;;;;;;2292582;55;21032;-68
2023/07/18 10:24:28;;;;;;;1.83;0.77;;;27.00;55.70;;;;;;2515697;54;21479;-67
2023/07/18 10:26:58;;;;;;;2.20;0.80;;;27.10;55.30;;;;;;2283389;55;21042;-66
2023/07/18 10:29:38;;;;;;;3.17;1.05;;;27.10;55.30;;;;;;2528581;54;20968;-66
2023/07/18 10:32:06;;;;;;;3.12;1.00;;;27.20;54.50;;;;;;2292914;56;20924;-67
2023/07/18 10:34:38;;;;;;;2.33;1.00;;;27.20;55.00;;;;;;2292926;56;20924;-67
2023/07/18 10:37:07;;;;;;;2.40;0.90;;;27.40;54.60;;;;;;2528233;54;20961;-65
2023/07/18 10:39:42;;;;;;;2.85;1.05;;;27.30;54.60;;;;;;2293503;55;20973;-68
2023/07/18 10:42:21;;;;;;;4.18;1.00;;;27.40;54.20;;;;;;2282470;55;21013;-67
2023/07/18 10:44:57;;;;;;;2.15;0.88;;;27.40;54.30;;;;;;2288414;55;21055;-66
2023/07/18 10:47:23;;;;;;;1.83;0.75;;;27.50;53.80;;;;;;2293505;55;21500;-66
2023/07/18 10:49:50;;;;;;;2.67;0.98;;;27.50;54.30;;;;;;2528023;54;20924;-67
2023/07/18 10:52:18;;;;;;;2.90;0.82;;;27.50;54.20;;;;;;2293718;55;20980;-67
2023/07/18 10:54:55;;;;;;;4.93;1.20;;;27.60;54.10;;;;;;2295664;55;20964;-67
2023/07/18 10:57:32;;;;;;;2.80;0.90;;;27.60;53.40;;;;;;2291713;55;20982;-67
2023/07/18 10:59:59;;;;;;;2.72;0.77;;;27.60;53.60;;;;;;2511134;54;21583;-67
2023/07/18 11:02:26;;;;;;;2.85;0.95;;;27.60;54.00;;;;;;2293009;55;20944;-67
2023/07/18 11:04:53;;;;;;;3.78;1.10;;;27.60;54.00;;;;;;2292885;55;21086;-67
2023/07/18 11:07:43;;;;;;;3.80;1.00;;;27.50;54.00;;;;;;2528297;54;20948;-68
2023/07/18 11:10:10;;;;;;;2.55;0.88;;;27.50;53.40;;;;;;2518319;54;21013;-68
2023/07/18 11:12:36;;;;;;;1.92;0.75;;;27.50;54.20;;;;;;2513324;54;20956;-68
2023/07/18 11:15:07;;;;;;;2.95;0.80;;;27.50;54.20;;;;;;2528878;54;20977;-67
2023/07/18 11:17:35;;;;;;;2.37;1.08;;;27.50;54.10;;;;;;2294364;55;20924;-69
2023/07/18 11:20:03;;;;;;;1.85;0.82;;;27.40;54.20;;;;;;2528703;54;20935;-67
2023/07/18 11:22:29;;;;;;;3.33;1.17;;;27.50;54.20;;;;;;2528646;54;20947;-68
2023/07/18 11:24:56;;;;;;;3.20;1.20;;;27.40;54.10;;;;;;2527501;54;20953;-67
2023/07/18 11:27:23;;;;;;;2.20;0.80;;;27.30;54.00;;;;;;2292646;55;20948;-69
2023/07/18 11:30:04;;;;;;;2.60;0.90;;;27.30;54.00;;;;;;2292380;55;20937;-68
2023/07/18 11:32:38;;;;;;;3.78;0.90;;;27.30;54.00;;;;;;2292559;55;20940;-67
2023/07/18 11:35:06;;;;;;;1.98;0.93;;;27.20;54.10;;;;;;2528327;54;20968;-67
2023/07/18 11:37:33;;;;;;;3.03;1.10;;;27.20;54.00;;;;;;2292532;55;20940;-67
2023/07/18 11:40:02;;;;;;;3.33;1.17;;;27.20;54.10;;;;;;2292755;55;21608;-68
2023/07/18 11:42:53;;;;;;;3.08;1.00;;;27.10;54.10;;;;;;2528443;54;20960;-68
2023/07/18 11:45:25;;;;;;;3.40;1.58;;;27.10;53.30;;;;;;2293870;55;21535;-66
2023/07/18 11:47:53;;;;;;;4.70;1.30;;;27.00;53.40;;;;;;2293410;55;20972;-67
2023/07/18 11:50:19;;;;;;;2.72;1.40;;;26.90;53.60;;;;;;2293348;55;20968;-68
2023/07/18 11:52:48;;;;;;;2.92;1.20;;;26.80;53.70;;;;;;2292884;55;20948;-67
2023/07/18 11:55:15;;;;;;;3.15;1.25;;;26.80;53.90;;;;;;2527955;54;20920;-68
2023/07/18 11:57:43;;;;;;;3.42;1.30;;;26.70;54.10;;;;;;2292942;55;20904;-66
2023/07/18 12:00:13;;;;;;;3.22;1.27;;;26.70;54.30;;;;;;2292328;55;21457;-67
2023/07/18 12:02:40;;;;;;;2.10;0.90;;;26.70;54.60;;;;;;2292343;55;21016;-67
2023/07/18 12:05:06;;;;;;;5.47;0.98;;;26.70;54.70;;;;;;2527871;54;21032;-66
2023/07/18 12:07:33;;;;;;;3.60;1.48;;;26.70;54.90;;;;;;2527535;54;20924;-68
2023/07/18 12:10:00;;;;;;;3.47;1.30;;;26.70;55.00;;;;;;2526675;54;20991;-67
2023/07/18 12:12:29;;;;;;;2.67;1.00;;;26.70;55.10;;;;;;2528027;54;21416;-66
2023/07/18 12:14:56;;;;;;;4.10;0.98;;;26.80;55.30;;;;;;2291676;55;21439;-66
2023/07/18 12:17:22;;;;;;;2.55;0.98;;;26.80;55.30;;;;;;2528126;54;20944;-67
2023/07/18 12:19:48;;;;;;;4.53;1.08;;;26.90;55.40;;;;;;2275523;55;21011;-66
2023/07/18 12:22:16;;;;;;;3.80;1.00;;;26.90;55.40;;;;;;2291689;55;21051;-68
2023/07/18 12:24:44;;;;;;;2.17;1.02;;;26.90;55.30;;;;;;2292485;55;21028;-68
2023/07/18 12:27:12;;;;;;;2.83;0.93;;;27.00;55.40;;;;;;2522909;54;20932;-67
2023/07/18 12:29:38;;;;;;;2.83;1.08;;;27.00;55.40;;;;;;2528439;54;20959;-67
2023/07/18 12:32:05;;;;;;;2.20;0.95;;;27.00;55.30;;;;;;2519953;54;20986;-66
2023/07/18 12:34:32;;;;;;;2.85;0.98;;;27.00;55.30;;;;;;2278310;55;21497;-65
2023/07/18 12:36:59;;;;;;;2.05;0.77;;;27.10;55.40;;;;;;2292759;55;21012;-66
2023/07/18 12:39:28;;;;;;;3.47;1.05;;;27.10;55.40;;;;;;2526613;54;20952;-68
2023/07/18 12:41:54;;;;;;;2.33;0.90;;;27.20;55.50;;;;;;2272822;55;20957;-67
2023/07/18 12:44:35;;;;;;;2.30;0.80;;;27.10;55.40;;;;;;2292823;55;20934;-66
2023/07/18 12:47:03;;;;;;;2.25;0.90;;;27.20;55.40;;;;;;2292590;55;20924;-66
2023/07/18 12:49:29;;;;;;;2.60;1.02;;;27.20;55.60;;;;;;2528135;54;21012;-67
2023/07/18 12:51:58;;;;;;;1.85;0.80;;;27.20;55.60;;;;;;2527290;54;20960;-66
2023/07/18 12:54:25;;;;;;;1.98;0.77;;;27.20;55.70;;;;;;2291720;55;21536;-67